Airfield :
LOGIN :

Register | Disclaimer

   EN    FR    IT 

 










Legend :    VFR   Marginal VFR   IFR   Intensive IFR   Very Intensive IFR
Visi :
Ceiling :
>= 8 km
>= 3000ft
5 to 8 km
1000 to 3000 ft
1500m to 5 km
500 to 1000 ft
800 to 1500m
200 to 500 ft
< 800m
< 200 ft
Symbols :   Thunderstorms  Fog  Heavy snow  Heavy precipitations  Wind > 20 kt
SIGMETs :     Misc.  Thunderstorms  Icing  Turbulence  Mountain Waves  Volcanic Ashes






- Airport Elevation : 268 ft
- IATA code : BFS


EGAA - Belfast Aldergrove

CURRENT METAR :
  • 171250Z AUTO 28006KT 250V310 9999 SCT013 07/05 Q1018

EXPIRED METARs :
  • 171220Z AUTO 31005KT 280V340 9999 -RA SCT016 BKN043 07/04 Q1019 REUP
  • 171150Z AUTO 34006KT 310V010 9999 FEW026 BKN036 07/04 Q1019
  • 171120Z AUTO 34007KT 9999 -RA FEW020/// BKN036/// //////TCU 07/04 Q1019
  • 171050Z AUTO 32008KT 9999 FEW019 BKN028 BKN044 07/04 Q1019
  • 171020Z AUTO 32008KT 9999 BKN035 OVC045 07/04 Q1019 REUP
  • 170950Z AUTO 34007KT 320V020 9999 -RA FEW013/// BKN026/// BKN032/// //////TCU 06/04 Q1019
  • 170920Z AUTO 33010KT 300V360 9999 SCT020/// BKN025/// BKN033/// //////TCU 07/04 Q1019
  • 170850Z AUTO 31010KT 9999 SCT018 BKN044 07/04 Q1019
  • 170820Z AUTO 31009KT 9999 SCT017 07/04 Q1019

TAF TAF EGAA
Valid from the 17 at 12:00 until the 18 at 12:00 UTC


171056Z 1712/1812 31010KT 9999 SCT020
TEMPO 1712/1715 6000 RA -RADZ BKN012
PROB30
TEMPO 1712/1715 4000 RADZ BKN007
PROB40
TEMPO 1715/1718 8000 -DZ BKN009
BECMG 1723/1802 21003KT
PROB40
TEMPO 1723/1806 4000 BR
PROB30 1800/1806 0300 FG VV///
TEMPO 1806/1812 7000 RA BKN009



MET'MAP, your aeronautical weather chart ! - Copyright ORBIFLY December 2007 - Disclaimer

ORBIFLY MET'MAP TEAM :

Programming & Development : Alexandra Zaïnal
Original concept : Baudouin d'Aumeries
Technical & hardware support : Manuel Goepfert
Assistance : Marc-Olivier Méhu




SOURCES & CREDITS :

   NOAA